sensor_id;sensor_type;location;lat;lon;timestamp;pressure;altitude;pressure_sealevel;temperature;humidity
71970;BME280;59838;52.152;5.436;2023-04-24T00:00:59;99911.00;;;9.06;100.00
71970;BME280;59838;52.152;5.436;2023-04-24T00:03:27;99922.94;;;9.07;100.00
71970;BME280;59838;52.152;5.436;2023-04-24T00:05:54;99930.91;;;9.05;100.00
71970;BME280;59838;52.152;5.436;2023-04-24T00:08:21;99926.94;;;9.03;100.00
71970;BME280;59838;52.152;5.436;2023-04-24T00:10:49;99935.09;;;9.00;100.00
71970;BME280;59838;52.152;5.436;2023-04-24T00:13:15;99935.28;;;8.98;100.00
71970;BME280;59838;52.152;5.436;2023-04-24T00:15:42;99943.25;;;8.96;100.00
71970;BME280;59838;52.152;5.436;2023-04-24T00:18:08;99933.25;;;8.93;100.00
71970;BME280;59838;52.152;5.436;2023-04-24T00:20:35;99938.63;;;8.92;100.00
71970;BME280;59838;52.152;5.436;2023-04-24T00:23:04;99946.59;;;8.90;100.00
71970;BME280;59838;52.152;5.436;2023-04-24T00:25:31;99947.63;;;8.89;100.00
71970;BME280;59838;52.152;5.436;2023-04-24T00:27:57;99951.97;;;8.89;100.00
71970;BME280;59838;52.152;5.436;2023-04-24T00:30:24;99954.38;;;8.90;100.00
71970;BME280;59838;52.152;5.436;2023-04-24T00:32:50;99949.56;;;8.87;100.00
71970;BME280;59838;52.152;5.436;2023-04-24T00:35:17;99955.97;;;8.85;100.00
71970;BME280;59838;52.152;5.436;2023-04-24T00:37:46;99955.53;;;8.81;100.00
71970;BME280;59838;52.152;5.436;2023-04-24T00:40:12;99950.56;;;8.80;100.00
71970;BME280;59838;52.152;5.436;2023-04-24T00:42:40;99945.94;;;8.75;100.00
71970;BME280;59838;52.152;5.436;2023-04-24T00:45:07;99953.28;;;8.71;100.00
71970;BME280;59838;52.152;5.436;2023-04-24T00:47:34;99958.06;;;8.68;100.00
71970;BME280;59838;52.152;5.436;2023-04-24T00:50:02;99960.81;;;8.66;100.00
71970;BME280;59838;52.152;5.436;2023-04-24T00:52:29;99964.25;;;8.67;100.00
71970;BME280;59838;52.152;5.436;2023-04-24T00:54:58;99963.22;;;8.68;100.00
71970;BME280;59838;52.152;5.436;2023-04-24T00:57:25;99966.81;;;8.67;100.00
71970;BME280;59838;52.152;5.436;2023-04-24T00:59:52;99972.97;;;8.66;100.00
71970;BME280;59838;52.152;5.436;2023-04-24T01:02:19;99971.19;;;8.66;100.00
71970;BME280;59838;52.152;5.436;2023-04-24T01:04:49;99972.78;;;8.67;100.00
71970;BME280;59838;52.152;5.436;2023-04-24T01:07:18;99978.75;;;8.68;100.00
71970;BME280;59838;52.152;5.436;2023-04-24T01:09:47;99975.19;;;8.69;100.00
71970;BME280;59838;52.152;5.436;2023-04-24T01:12:15;99971.00;;;8.68;100.00
71970;BME280;59838;52.152;5.436;2023-04-24T01:14:42;99989.94;;;8.68;100.00
71970;BME280;59838;52.152;5.436;2023-04-24T01:17:08;99985.75;;;8.67;100.00
71970;BME280;59838;52.152;5.436;2023-04-24T01:19:35;99986.53;;;8.68;100.00
71970;BME280;59838;52.152;5.436;2023-04-24T01:22:02;99987.16;;;8.70;100.00
71970;BME280;59838;52.152;5.436;2023-04-24T01:24:30;99992.34;;;8.70;100.00
71970;BME280;59838;52.152;5.436;2023-04-24T01:26:56;99994.13;;;8.69;100.00
71970;BME280;59838;52.152;5.436;2023-04-24T01:29:23;99999.09;;;8.71;100.00
71970;BME280;59838;52.152;5.436;2023-04-24T01:31:50;100008.47;;;8.72;100.00
71970;BME280;59838;52.152;5.436;2023-04-24T01:34:16;99997.31;;;8.71;100.00
71970;BME280;59838;52.152;5.436;2023-04-24T01:36:45;99996.31;;;8.72;100.00
71970;BME280;59838;52.152;5.436;2023-04-24T01:39:13;99996.31;;;8.72;100.00
71970;BME280;59838;52.152;5.436;2023-04-24T01:41:42;99999.50;;;8.74;100.00
71970;BME280;59838;52.152;5.436;2023-04-24T01:44:09;100001.13;;;8.75;100.00
71970;BME280;59838;52.152;5.436;2023-04-24T01:46:35;100011.47;;;8.75;100.00
71970;BME280;59838;52.152;5.436;2023-04-24T01:49:03;100004.69;;;8.74;100.00
71970;BME280;59838;52.152;5.436;2023-04-24T01:51:29;100008.09;;;8.75;100.00
71970;BME280;59838;52.152;5.436;2023-04-24T01:53:57;100004.69;;;8.74;100.00
71970;BME280;59838;52.152;5.436;2023-04-24T01:56:24;100007.47;;;8.73;100.00
71970;BME280;59838;52.152;5.436;2023-04-24T01:58:52;100005.69;;;8.73;100.00
71970;BME280;59838;52.152;5.436;2023-04-24T02:01:20;100007.91;;;8.76;100.00
71970;BME280;59838;52.152;5.436;2023-04-24T02:03:47;100009.69;;;8.76;100.00
71970;BME280;59838;52.152;5.436;2023-04-24T02:06:14;100001.31;;;8.74;100.00
71970;BME280;59838;52.152;5.436;2023-04-24T02:08:40;100008.69;;;8.77;100.00
71970;BME280;59838;52.152;5.436;2023-04-24T02:11:09;100006.72;;;8.79;100.00
71970;BME280;59838;52.152;5.436;2023-04-24T02:13:35;100009.31;;;8.79;100.00
71970;BME280;59838;52.152;5.436;2023-04-24T02:16:02;100008.31;;;8.80;100.00
71970;BME280;59838;52.152;5.436;2023-04-24T02:18:29;100013.50;;;8.80;100.00
71970;BME280;59838;52.152;5.436;2023-04-24T02:20:55;100006.53;;;8.81;100.00
71970;BME280;59838;52.152;5.436;2023-04-24T02:23:21;100011.72;;;8.81;100.00
71970;BME280;59838;52.152;5.436;2023-04-24T02:25:48;100003.94;;;8.81;100.00
71970;BME280;59838;52.152;5.436;2023-04-24T02:28:14;99998.16;;;8.78;100.00
71970;BME280;59838;52.152;5.436;2023-04-24T02:30:41;100005.13;;;8.78;100.00
71970;BME280;59838;52.152;5.436;2023-04-24T02:33:07;100003.53;;;8.77;100.00
71970;BME280;59838;52.152;5.436;2023-04-24T02:35:34;99998.34;;;8.77;100.00
71970;BME280;59838;52.152;5.436;2023-04-24T02:38:01;100002.09;;;8.74;100.00
71970;BME280;59838;52.152;5.436;2023-04-24T02:40:27;100008.47;;;8.72;100.00
71970;BME280;59838;52.152;5.436;2023-04-24T02:42:53;100010.47;;;8.70;100.00
71970;BME280;59838;52.152;5.436;2023-04-24T02:45:20;100011.25;;;8.70;100.00
71970;BME280;59838;52.152;5.436;2023-04-24T02:47:47;100007.88;;;8.70;100.00
71970;BME280;59838;52.152;5.436;2023-04-24T02:50:13;100011.44;;;8.69;100.00
71970;BME280;59838;52.152;5.436;2023-04-24T02:52:40;100010.66;;;8.68;100.00
71970;BME280;59838;52.152;5.436;2023-04-24T02:55:07;100006.28;;;8.69;100.00
71970;BME280;59838;52.152;5.436;2023-04-24T02:57:34;100007.88;;;8.70;100.00
71970;BME280;59838;52.152;5.436;2023-04-24T03:00:00;100011.06;;;8.72;100.00
71970;BME280;59838;52.152;5.436;2023-04-24T03:02:27;100008.66;;;8.70;100.00
71970;BME280;59838;52.152;5.436;2023-04-24T03:04:53;100011.06;;;8.72;100.00
71970;BME280;59838;52.152;5.436;2023-04-24T03:07:21;100007.47;;;8.73;100.00
71970;BME280;59838;52.152;5.436;2023-04-24T03:09:47;100007.47;;;8.73;100.00
71970;BME280;59838;52.152;5.436;2023-04-24T03:12:14;100012.28;;;8.76;100.00
71970;BME280;59838;52.152;5.436;2023-04-24T03:14:40;100008.69;;;8.77;100.00
71970;BME280;59838;52.152;5.436;2023-04-24T03:17:07;100009.50;;;8.77;100.00
71970;BME280;59838;52.152;5.436;2023-04-24T03:19:33;100005.75;;;8.80;100.00
71970;BME280;59838;52.152;5.436;2023-04-24T03:22:02;100007.31;;;8.81;100.00
71970;BME280;59838;52.152;5.436;2023-04-24T03:24:29;100009.91;;;8.81;100.00
71970;BME280;59838;52.152;5.436;2023-04-24T03:26:57;100007.91;;;8.76;100.00
71970;BME280;59838;52.152;5.436;2023-04-24T03:29:23;100007.09;;;8.76;100.00
71970;BME280;59838;52.152;5.436;2023-04-24T03:31:50;100014.06;;;8.75;100.00
71970;BME280;59838;52.152;5.436;2023-04-24T03:34:17;100016.84;;;8.74;100.00
71970;BME280;59838;52.152;5.436;2023-04-24T03:36:43;100017.84;;;8.73;100.00
71970;BME280;59838;52.152;5.436;2023-04-24T03:39:09;100021.25;;;8.73;100.00
71970;BME280;59838;52.152;5.436;2023-04-24T03:41:36;100019.81;;;8.71;100.00
71970;BME280;59838;52.152;5.436;2023-04-24T03:44:02;100018.03;;;8.71;100.00
71970;BME280;59838;52.152;5.436;2023-04-24T03:46:29;100013.25;;;8.68;100.00
71970;BME280;59838;52.152;5.436;2023-04-24T03:48:56;100014.22;;;8.67;100.00
71970;BME280;59838;52.152;5.436;2023-04-24T03:51:22;100010.84;;;8.67;100.00
71970;BME280;59838;52.152;5.436;2023-04-24T03:53:49;100010.03;;;8.66;100.00
71970;BME280;59838;52.152;5.436;2023-04-24T03:56:16;100012.63;;;8.66;100.00
71970;BME280;59838;52.152;5.436;2023-04-24T03:58:42;100015.00;;;8.68;100.00
71970;BME280;59838;52.152;5.436;2023-04-24T04:01:09;100016.03;;;8.67;100.00
71970;BME280;59838;52.152;5.436;2023-04-24T04:03:36;100023.59;;;8.68;100.00
71970;BME280;59838;52.152;5.436;2023-04-24T04:06:04;100023.78;;;8.67;100.00
71970;BME280;59838;52.152;5.436;2023-04-24T04:08:30;100027.38;;;8.66;100.00
71970;BME280;59838;52.152;5.436;2023-04-24T04:10:57;100033.34;;;8.66;100.00
71970;BME280;59838;52.152;5.436;2023-04-24T04:13:24;100035.91;;;8.66;100.00
71970;BME280;59838;52.152;5.436;2023-04-24T04:15:50;100041.28;;;8.65;100.00
71970;BME280;59838;52.152;5.436;2023-04-24T04:18:17;100039.06;;;8.62;100.00
71970;BME280;59838;52.152;5.436;2023-04-24T04:20:43;100037.50;;;8.60;100.00
71970;BME280;59838;52.152;5.436;2023-04-24T04:23:10;100046.22;;;8.59;100.00
71970;BME280;59838;52.152;5.436;2023-04-24T04:25:36;100042.66;;;8.60;100.00
71970;BME280;59838;52.152;5.436;2023-04-24T04:28:03;100043.66;;;8.59;100.00
71970;BME280;59838;52.152;5.436;2023-04-24T04:30:29;100044.44;;;8.60;100.00
71970;BME280;59838;52.152;5.436;2023-04-24T04:32:59;100036.88;;;8.58;100.00
71970;BME280;59838;52.152;5.436;2023-04-24T04:35:25;100046.22;;;8.59;100.00
71970;BME280;59838;52.152;5.436;2023-04-24T04:37:52;100051.78;;;8.56;100.00
71970;BME280;59838;52.152;5.436;2023-04-24T04:40:18;100058.56;;;8.57;100.00
71970;BME280;59838;52.152;5.436;2023-04-24T04:42:45;100056.78;;;8.58;100.00
71970;BME280;59838;52.152;5.436;2023-04-24T04:45:12;100066.94;;;8.59;100.00
71970;BME280;59838;52.152;5.436;2023-04-24T04:47:38;100066.94;;;8.59;100.00
71970;BME280;59838;52.152;5.436;2023-04-24T04:50:09;100066.75;;;8.61;100.00
71970;BME280;59838;52.152;5.436;2023-04-24T04:52:36;100070.13;;;8.62;100.00
71970;BME280;59838;52.152;5.436;2023-04-24T04:55:03;100068.38;;;8.62;100.00
71970;BME280;59838;52.152;5.436;2023-04-24T04:57:30;100070.97;;;8.62;100.00
71970;BME280;59838;52.152;5.436;2023-04-24T04:59:56;100073.38;;;8.64;100.00
71970;BME280;59838;52.152;5.436;2023-04-24T05:02:23;100078.34;;;8.65;100.00
71970;BME280;59838;52.152;5.436;2023-04-24T05:04:49;100088.53;;;8.67;100.00
71970;BME280;59838;52.152;5.436;2023-04-24T05:07:16;100091.53;;;8.70;100.00
71970;BME280;59838;52.152;5.436;2023-04-24T05:09:44;100092.31;;;8.71;100.00
71970;BME280;59838;52.152;5.436;2023-04-24T05:12:11;100093.38;;;8.76;100.00
71970;BME280;59838;52.152;5.436;2023-04-24T05:14:37;100094.78;;;8.79;100.00
71970;BME280;59838;52.152;5.436;2023-04-24T05:17:04;100100.56;;;8.81;100.00
71970;BME280;59838;52.152;5.436;2023-04-24T05:19:30;100100.81;;;8.86;100.00
71970;BME280;59838;52.152;5.436;2023-04-24T05:21:59;100106.59;;;8.88;100.00
71970;BME280;59838;52.152;5.436;2023-04-24T05:24:25;100113.41;;;8.89;100.00
71970;BME280;59838;52.152;5.436;2023-04-24T05:26:52;100119.19;;;8.91;100.00
71970;BME280;59838;52.152;5.436;2023-04-24T05:29:18;100120.97;;;8.91;100.00
71970;BME280;59838;52.152;5.436;2023-04-24T05:31:45;100120.75;;;8.92;100.00
71970;BME280;59838;52.152;5.436;2023-04-24T05:34:11;100127.97;;;8.97;100.00
71970;BME280;59838;52.152;5.436;2023-04-24T05:36:38;100133.97;;;8.98;100.00
71970;BME280;59838;52.152;5.436;2023-04-24T05:39:04;100131.19;;;8.99;100.00
71970;BME280;59838;52.152;5.436;2023-04-24T05:41:34;100135.56;;;8.99;100.00
71970;BME280;59838;52.152;5.436;2023-04-24T05:44:00;100144.16;;;8.99;100.00
71970;BME280;59838;52.152;5.436;2023-04-24T05:46:27;100148.31;;;9.00;100.00
71970;BME280;59838;52.152;5.436;2023-04-24T05:48:53;100144.94;;;9.00;100.00
71970;BME280;59838;52.152;5.436;2023-04-24T05:51:20;100152.28;;;8.96;100.00
71970;BME280;59838;52.152;5.436;2023-04-24T05:53:46;100154.25;;;8.94;100.00
71970;BME280;59838;52.152;5.436;2023-04-24T05:56:13;100161.59;;;8.90;100.00
71970;BME280;59838;52.152;5.436;2023-04-24T05:58:40;100169.38;;;8.90;100.00
71970;BME280;59838;52.152;5.436;2023-04-24T06:01:07;100168.94;;;8.87;100.00
71970;BME280;59838;52.152;5.436;2023-04-24T06:03:34;100173.72;;;8.83;100.00
71970;BME280;59838;52.152;5.436;2023-04-24T06:06:00;100170.88;;;8.78;100.00
71970;BME280;59838;52.152;5.436;2023-04-24T06:08:27;100187.97;;;8.72;100.00
71970;BME280;59838;52.152;5.436;2023-04-24T06:10:53;100183.75;;;8.71;100.00
71970;BME280;59838;52.152;5.436;2023-04-24T06:13:20;100183.97;;;8.70;100.00
71970;BME280;59838;52.152;5.436;2023-04-24T06:15:46;100194.69;;;8.67;100.00
71970;BME280;59838;52.152;5.436;2023-04-24T06:18:13;100192.28;;;8.65;100.00
71970;BME280;59838;52.152;5.436;2023-04-24T06:20:39;100208.81;;;8.64;100.00
71970;BME280;59838;52.152;5.436;2023-04-24T06:23:07;100206.59;;;8.61;100.00
71970;BME280;59838;52.152;5.436;2023-04-24T06:25:33;100210.97;;;8.60;100.00
71970;BME280;59838;52.152;5.436;2023-04-24T06:28:00;100213.75;;;8.59;100.00
71970;BME280;59838;52.152;5.436;2023-04-24T06:30:27;100222.66;;;8.56;100.00
71970;BME280;59838;52.152;5.436;2023-04-24T06:32:54;100226.88;;;8.57;100.00
71970;BME280;59838;52.152;5.436;2023-04-24T06:35:28;100230.78;;;8.53;100.00
71970;BME280;59838;52.152;5.436;2023-04-24T06:37:54;100240.53;;;8.51;100.00
71970;BME280;59838;52.152;5.436;2023-04-24T06:40:22;100251.06;;;8.50;100.00
71970;BME280;59838;52.152;5.436;2023-04-24T06:42:49;100253.06;;;8.48;100.00
71970;BME280;59838;52.152;5.436;2023-04-24T06:45:15;100253.22;;;8.46;100.00
71970;BME280;59838;52.152;5.436;2023-04-24T06:47:42;100265.81;;;8.49;100.00
71970;BME280;59838;52.152;5.436;2023-04-24T06:50:08;100271.78;;;8.50;100.00
71970;BME280;59838;52.152;5.436;2023-04-24T06:52:35;100273.22;;;8.52;100.00
71970;BME280;59838;52.152;5.436;2023-04-24T06:55:03;100285.16;;;8.53;100.00
71970;BME280;59838;52.152;5.436;2023-04-24T06:57:30;100290.53;;;8.52;100.00
71970;BME280;59838;52.152;5.436;2023-04-24T06:59:56;100291.34;;;8.52;100.00
71970;BME280;59838;52.152;5.436;2023-04-24T07:02:23;100302.50;;;8.53;100.00
71970;BME280;59838;52.152;5.436;2023-04-24T07:04:50;100305.88;;;8.53;100.00
71970;BME280;59838;52.152;5.436;2023-04-24T07:07:16;100310.44;;;8.51;100.00
71970;BME280;59838;52.152;5.436;2023-04-24T07:09:42;100317.59;;;8.49;100.00
71970;BME280;59838;52.152;5.436;2023-04-24T07:12:11;100323.91;;;8.47;100.00
71970;BME280;59838;52.152;5.436;2023-04-24T07:14:37;100333.47;;;8.46;100.00
71970;BME280;59838;52.152;5.436;2023-04-24T07:17:04;100340.78;;;8.42;100.00
71970;BME280;59838;52.152;5.436;2023-04-24T07:19:33;100344.53;;;8.40;100.00
71970;BME280;59838;52.152;5.436;2023-04-24T07:22:01;100356.41;;;8.34;100.00
71970;BME280;59838;52.152;5.436;2023-04-24T07:24:27;100361.75;;;8.33;100.00
71970;BME280;59838;52.152;5.436;2023-04-24T07:26:55;100370.84;;;8.29;100.00
71970;BME280;59838;52.152;5.436;2023-04-24T07:29:23;100371.81;;;8.28;100.00
71970;BME280;59838;52.152;5.436;2023-04-24T07:31:49;100380.59;;;8.27;100.00
71970;BME280;59838;52.152;5.436;2023-04-24T07:34:16;100389.59;;;8.31;100.00
71970;BME280;59838;52.152;5.436;2023-04-24T07:36:42;100393.78;;;8.32;100.00
71970;BME280;59838;52.152;5.436;2023-04-24T07:39:09;100398.78;;;8.33;100.00
71970;BME280;59838;52.152;5.436;2023-04-24T07:41:35;100399.31;;;8.29;100.00
71970;BME280;59838;52.152;5.436;2023-04-24T07:44:02;100416.03;;;8.26;100.00
71970;BME280;59838;52.152;5.436;2023-04-24T07:46:29;100422.34;;;8.23;100.00
71970;BME280;59838;52.152;5.436;2023-04-24T07:48:56;100422.19;;;8.25;100.00
71970;BME280;59838;52.152;5.436;2023-04-24T07:51:39;100426.00;;;8.29;100.00
71970;BME280;59838;52.152;5.436;2023-04-24T07:54:06;100431.66;;;8.33;100.00
71970;BME280;59838;52.152;5.436;2023-04-24T07:56:33;100429.69;;;8.35;100.00
71970;BME280;59838;52.152;5.436;2023-04-24T07:58:59;100436.28;;;8.37;100.00
71970;BME280;59838;52.152;5.436;2023-04-24T08:01:27;100442.63;;;8.35;100.00
71970;BME280;59838;52.152;5.436;2023-04-24T08:03:53;100445.81;;;8.37;100.00
71970;BME280;59838;52.152;5.436;2023-04-24T08:06:21;100448.41;;;8.37;100.00
71970;BME280;59838;52.152;5.436;2023-04-24T08:08:47;100446.00;;;8.35;100.00
71970;BME280;59838;52.152;5.436;2023-04-24T08:11:14;100465.47;;;8.31;100.00
71970;BME280;59838;52.152;5.436;2023-04-24T08:13:40;100470.81;;;8.30;100.00
71970;BME280;59838;52.152;5.436;2023-04-24T08:16:07;100481.34;;;8.28;100.00
71970;BME280;59838;52.152;5.436;2023-04-24T08:18:33;100486.06;;;8.24;100.00
71970;BME280;59838;52.152;5.436;2023-04-24T08:21:02;100483.84;;;8.21;100.00
71970;BME280;59838;52.152;5.436;2023-04-24T08:23:28;100495.50;;;8.17;100.00
71970;BME280;59838;52.152;5.436;2023-04-24T08:25:56;100504.63;;;8.13;100.00
71970;BME280;59838;52.152;5.436;2023-04-24T08:28:23;100508.16;;;8.12;100.00
71970;BME280;59838;52.152;5.436;2023-04-24T08:30:50;100516.91;;;8.11;100.00
71970;BME280;59838;52.152;5.436;2023-04-24T08:33:24;100534.22;;;8.11;100.00
71970;BME280;59838;52.152;5.436;2023-04-24T08:35:50;100520.81;;;8.07;100.00
71970;BME280;59838;52.152;5.436;2023-04-24T08:38:17;100525.06;;;8.00;100.00
71970;BME280;59838;52.152;5.436;2023-04-24T08:40:43;100541.75;;;7.97;100.00
71970;BME280;59838;52.152;5.436;2023-04-24T08:43:12;100549.63;;;8.04;100.00
71970;BME280;59838;52.152;5.436;2023-04-24T08:45:40;100544.56;;;8.11;100.00
71970;BME280;59838;52.152;5.436;2023-04-24T08:48:07;100544.84;;;8.16;100.00
71970;BME280;59838;52.152;5.436;2023-04-24T08:50:50;100541.75;;;8.20;100.00
71970;BME280;59838;52.152;5.436;2023-04-24T08:53:18;100563.53;;;8.26;100.00
71970;BME280;59838;52.152;5.436;2023-04-24T08:55:47;100561.41;;;8.30;100.00
71970;BME280;59838;52.152;5.436;2023-04-24T08:58:16;100559.72;;;8.37;100.00
71970;BME280;59838;52.152;5.436;2023-04-24T09:00:43;100551.44;;;8.41;100.00
71970;BME280;59838;52.152;5.436;2023-04-24T09:03:15;100572.31;;;8.40;100.00
71970;BME280;59838;52.152;5.436;2023-04-24T09:05:44;100578.94;;;8.42;100.00
71970;BME280;59838;52.152;5.436;2023-04-24T09:08:13;100590.25;;;8.41;100.00
71970;BME280;59838;52.152;5.436;2023-04-24T09:10:41;100589.28;;;8.42;100.00
71970;BME280;59838;52.152;5.436;2023-04-24T09:13:07;100591.50;;;8.54;100.00
71970;BME280;59838;52.152;5.436;2023-04-24T09:15:38;100592.22;;;8.63;100.00
71970;BME280;59838;52.152;5.436;2023-04-24T09:18:05;100594.13;;;8.69;100.00
71970;BME280;59838;52.152;5.436;2023-04-24T09:20:31;100592.50;;;8.68;99.50
71970;BME280;59838;52.152;5.436;2023-04-24T09:22:58;100600.28;;;8.68;98.94
71970;BME280;59838;52.152;5.436;2023-04-24T09:25:31;100600.84;;;8.78;98.59
71970;BME280;59838;52.152;5.436;2023-04-24T09:28:03;100605.78;;;8.88;97.90
71970;BME280;59838;52.152;5.436;2023-04-24T09:30:30;100615.88;;;8.98;96.73
71970;BME280;59838;52.152;5.436;2023-04-24T09:33:12;100624.81;;;9.10;97.48
71970;BME280;59838;52.152;5.436;2023-04-24T09:35:49;100620.63;;;9.24;94.37
71970;BME280;59838;52.152;5.436;2023-04-24T09:38:16;100632.78;;;9.38;95.00
71970;BME280;59838;52.152;5.436;2023-04-24T09:40:42;100630.09;;;9.46;93.18
71970;BME280;59838;52.152;5.436;2023-04-24T09:43:12;100633.75;;;9.52;91.80
71970;BME280;59838;52.152;5.436;2023-04-24T09:45:39;100634.56;;;9.52;91.46
71970;BME280;59838;52.152;5.436;2023-04-24T09:48:10;100643.22;;;9.60;90.80
71970;BME280;59838;52.152;5.436;2023-04-24T09:50:37;100643.59;;;9.57;90.63
71970;BME280;59838;52.152;5.436;2023-04-24T09:53:05;100658.16;;;9.58;90.42
71970;BME280;59838;52.152;5.436;2023-04-24T09:55:32;100660.31;;;9.54;89.00
71970;BME280;59838;52.152;5.436;2023-04-24T09:58:00;100661.91;;;9.40;88.79
71970;BME280;59838;52.152;5.436;2023-04-24T10:00:31;100664.69;;;9.39;89.13
71970;BME280;59838;52.152;5.436;2023-04-24T10:03:05;100667.91;;;9.41;89.12
71970;BME280;59838;52.152;5.436;2023-04-24T10:05:36;100668.47;;;9.51;89.55
71970;BME280;59838;52.152;5.436;2023-04-24T10:08:07;100681.84;;;9.69;89.93
71970;BME280;59838;52.152;5.436;2023-04-24T10:10:38;100676.94;;;9.75;88.92
71970;BME280;59838;52.152;5.436;2023-04-24T10:13:05;100683.72;;;9.76;89.46
71970;BME280;59838;52.152;5.436;2023-04-24T10:15:34;100682.66;;;9.70;87.80
71970;BME280;59838;52.152;5.436;2023-04-24T10:18:02;100691.34;;;9.62;86.55
71970;BME280;59838;52.152;5.436;2023-04-24T10:20:30;100681.59;;;9.64;87.45
71970;BME280;59838;52.152;5.436;2023-04-24T10:22:58;100692.59;;;9.66;85.90
71970;BME280;59838;52.152;5.436;2023-04-24T10:25:30;100691.78;;;9.66;84.00
71970;BME280;59838;52.152;5.436;2023-04-24T10:27:59;100695.97;;;9.67;83.78
71970;BME280;59838;52.152;5.436;2023-04-24T10:30:28;100696.72;;;9.76;84.35
71970;BME280;59838;52.152;5.436;2023-04-24T10:32:55;100688.81;;;9.84;84.20
71970;BME280;59838;52.152;5.436;2023-04-24T10:35:22;100692.09;;;10.07;84.74
71970;BME280;59838;52.152;5.436;2023-04-24T10:38:07;100692.13;;;10.29;83.17
71970;BME280;59838;52.152;5.436;2023-04-24T10:40:35;100697.13;;;10.46;83.44
71970;BME280;59838;52.152;5.436;2023-04-24T10:43:06;100692.59;;;10.76;82.74
71970;BME280;59838;52.152;5.436;2023-04-24T10:45:35;100702.47;;;11.09;82.69
71970;BME280;59838;52.152;5.436;2023-04-24T10:48:04;100701.97;;;11.27;80.80
71970;BME280;59838;52.152;5.436;2023-04-24T10:50:47;100701.75;;;11.22;81.39
71970;BME280;59838;52.152;5.436;2023-04-24T10:53:18;100710.25;;;11.09;80.54
71970;BME280;59838;52.152;5.436;2023-04-24T10:55:59;100715.13;;;10.69;77.22
71970;BME280;59838;52.152;5.436;2023-04-24T10:58:41;100717.47;;;10.42;80.91
71970;BME280;59838;52.152;5.436;2023-04-24T11:01:43;100721.66;;;10.28;82.99
71970;BME280;59838;52.152;5.436;2023-04-24T11:04:29;100724.09;;;10.30;85.15
71970;BME280;59838;52.152;5.436;2023-04-24T11:06:56;100735.41;;;10.07;84.02
71970;BME280;59838;52.152;5.436;2023-04-24T11:09:26;100736.97;;;9.86;83.44
71970;BME280;59838;52.152;5.436;2023-04-24T11:12:03;100745.38;;;9.74;84.91
71970;BME280;59838;52.152;5.436;2023-04-24T11:17:33;100756.63;;;9.51;86.68
71970;BME280;59838;52.152;5.436;2023-04-24T11:20:15;100761.47;;;9.54;87.09
71970;BME280;59838;52.152;5.436;2023-04-24T11:22:54;100764.59;;;9.49;87.07
71970;BME280;59838;52.152;5.436;2023-04-24T11:25:22;100766.00;;;9.52;87.77
71970;BME280;59838;52.152;5.436;2023-04-24T11:27:49;100771.59;;;9.64;87.25
71970;BME280;59838;52.152;5.436;2023-04-24T11:30:20;100770.88;;;10.00;88.50
71970;BME280;59838;52.152;5.436;2023-04-24T11:32:48;100765.53;;;10.53;86.80
71970;BME280;59838;52.152;5.436;2023-04-24T11:35:23;100764.88;;;10.87;84.91
71970;BME280;59838;52.152;5.436;2023-04-24T11:37:53;100753.97;;;11.48;83.01
71970;BME280;59838;52.152;5.436;2023-04-24T11:40:39;100756.72;;;11.75;83.60
71970;BME280;59838;52.152;5.436;2023-04-24T11:43:06;100753.84;;;11.63;79.46
71970;BME280;59838;52.152;5.436;2023-04-24T11:45:34;100763.34;;;11.49;79.06
71970;BME280;59838;52.152;5.436;2023-04-24T11:48:03;100768.44;;;11.29;76.96
71970;BME280;59838;52.152;5.436;2023-04-24T11:50:30;100779.28;;;11.11;77.13
71970;BME280;59838;52.152;5.436;2023-04-24T11:52:56;100768.63;;;11.28;78.85
71970;BME280;59838;52.152;5.436;2023-04-24T11:55:24;100776.78;;;11.53;77.23
71970;BME280;59838;52.152;5.436;2023-04-24T11:57:55;100772.16;;;11.83;75.73
71970;BME280;59838;52.152;5.436;2023-04-24T12:00:24;100780.56;;;12.14;74.57
71970;BME280;59838;52.152;5.436;2023-04-24T12:02:52;100781.69;;;12.46;71.09
71970;BME280;59838;52.152;5.436;2023-04-24T12:05:30;100786.94;;;12.66;73.14
71970;BME280;59838;52.152;5.436;2023-04-24T12:07:59;100785.53;;;12.64;71.67
71970;BME280;59838;52.152;5.436;2023-04-24T12:10:28;100800.94;;;12.52;71.48
71970;BME280;59838;52.152;5.436;2023-04-24T12:12:56;100811.28;;;12.32;71.97
71970;BME280;59838;52.152;5.436;2023-04-24T12:15:24;100807.50;;;11.93;70.93
71970;BME280;59838;52.152;5.436;2023-04-24T12:17:52;100812.81;;;11.56;72.02
71970;BME280;59838;52.152;5.436;2023-04-24T12:20:24;100816.78;;;11.24;71.76
71970;BME280;59838;52.152;5.436;2023-04-24T12:22:53;100830.34;;;10.97;71.30
71970;BME280;59838;52.152;5.436;2023-04-24T12:25:25;100828.97;;;10.80;73.16
71970;BME280;59838;52.152;5.436;2023-04-24T12:27:54;100824.13;;;10.77;72.61
71970;BME280;59838;52.152;5.436;2023-04-24T12:30:26;100831.59;;;10.65;69.31
71970;BME280;59838;52.152;5.436;2023-04-24T12:32:57;100828.13;;;10.43;70.17
71970;BME280;59838;52.152;5.436;2023-04-24T12:35:25;100840.25;;;10.36;71.52
71970;BME280;59838;52.152;5.436;2023-04-24T12:37:52;100840.59;;;10.33;70.96
71970;BME280;59838;52.152;5.436;2023-04-24T12:40:19;100836.13;;;10.41;71.45
71970;BME280;59838;52.152;5.436;2023-04-24T12:42:48;100843.63;;;10.66;72.12
71970;BME280;59838;52.152;5.436;2023-04-24T12:45:16;100850.38;;;10.82;71.43
71970;BME280;59838;52.152;5.436;2023-04-24T12:47:44;100848.28;;;10.92;70.45
71970;BME280;59838;52.152;5.436;2023-04-24T12:50:13;100848.59;;;10.83;69.75
71970;BME280;59838;52.152;5.436;2023-04-24T12:52:40;100842.03;;;10.87;71.60
71970;BME280;59838;52.152;5.436;2023-04-24T12:55:08;100853.16;;;10.81;72.97
71970;BME280;59838;52.152;5.436;2023-04-24T12:57:37;100860.59;;;10.84;73.51
71970;BME280;59838;52.152;5.436;2023-04-24T13:00:04;100876.97;;;10.63;74.01